createdAt,value
2019-05-22T00:01:15.550Z,14.00
2019-05-22T00:04:03.291Z,14.05
2019-05-22T00:06:37.644Z,16.52
2019-05-22T00:09:08.660Z,13.38
2019-05-22T00:11:40.280Z,14.75
2019-05-22T00:14:10.851Z,17.30
2019-05-22T00:16:40.189Z,17.67
2019-05-22T00:19:11.907Z,14.35
2019-05-22T00:21:43.376Z,16.17
2019-05-22T00:24:13.464Z,17.75
2019-05-22T00:26:49.615Z,13.65
2019-05-22T00:29:18.537Z,14.43
2019-05-22T00:31:48.832Z,15.75
2019-05-22T00:34:18.334Z,13.78
2019-05-22T00:36:47.646Z,16.75
2019-05-22T00:39:19.408Z,16.50
2019-05-22T00:41:51.075Z,13.32
2019-05-22T00:44:22.224Z,13.20
2019-05-22T00:46:53.030Z,18.77
2019-05-22T00:49:24.581Z,16.25
2019-05-22T00:52:04.931Z,15.05
2019-05-22T00:54:41.845Z,14.85
2019-05-22T00:57:12.236Z,14.93
2019-05-22T00:59:45.630Z,15.13
2019-05-22T01:02:19.271Z,14.65
2019-05-22T01:04:50.817Z,14.78
2019-05-22T01:07:21.149Z,14.13
2019-05-22T01:09:52.464Z,19.48
2019-05-22T01:12:30.368Z,15.05
2019-05-22T01:15:01.361Z,14.40
2019-05-22T01:17:32.741Z,14.95
2019-05-22T01:20:03.812Z,15.38
2019-05-22T01:22:34.278Z,18.57
2019-05-22T01:25:04.731Z,18.00
2019-05-22T01:27:36.109Z,17.10
2019-05-22T01:30:08.167Z,16.00
2019-05-22T01:32:48.134Z,18.57
2019-05-22T01:35:20.145Z,20.90
2019-05-22T01:37:50.597Z,17.45
2019-05-22T01:40:28.192Z,18.35
2019-05-22T01:42:59.765Z,18.17
2019-05-22T01:45:28.626Z,17.60
2019-05-22T01:48:03.105Z,17.82
2019-05-22T01:50:37.238Z,17.60
2019-05-22T01:53:08.916Z,16.25
2019-05-22T01:55:40.333Z,15.85
2019-05-22T01:58:10.824Z,15.20
2019-05-22T02:00:41.333Z,17.02
2019-05-22T02:03:12.445Z,16.05
2019-05-22T02:05:42.962Z,15.40
2019-05-22T02:08:13.056Z,16.02
2019-05-22T02:10:46.716Z,14.38
2019-05-22T02:13:19.624Z,16.75
2019-05-22T02:15:49.903Z,20.12
2019-05-22T02:18:20.070Z,16.42
2019-05-22T02:20:50.368Z,16.93
2019-05-22T02:23:19.662Z,15.58
2019-05-22T02:25:48.666Z,17.10
2019-05-22T02:28:17.575Z,17.15
2019-05-22T02:30:47.789Z,15.28
2019-05-22T02:33:18.319Z,15.98
2019-05-22T02:35:48.272Z,16.57
2019-05-22T02:38:17.396Z,16.87
2019-05-22T02:40:47.609Z,15.95
2019-05-22T02:43:16.591Z,17.27
2019-05-22T02:45:45.717Z,18.02
2019-05-22T02:48:16.435Z,16.77
2019-05-22T02:50:47.283Z,14.55
2019-05-22T02:53:17.382Z,16.07
2019-05-22T02:55:48.073Z,17.75
2019-05-22T02:58:18.507Z,19.23
2019-05-22T03:00:58.855Z,17.62
2019-05-22T03:03:31.712Z,16.57
2019-05-22T03:06:03.053Z,15.70
2019-05-22T03:08:50.883Z,17.92
2019-05-22T03:11:21.243Z,17.90
2019-05-22T03:13:54.705Z,18.70
2019-05-22T03:16:24.115Z,18.40
2019-05-22T03:19:08.209Z,17.95
2019-05-22T03:21:25.712Z,24.98
2019-05-22T03:23:55.979Z,21.17
2019-05-22T03:26:27.642Z,20.20
2019-05-22T03:28:57.314Z,18.57
2019-05-22T03:31:26.699Z,18.12
2019-05-22T03:33:56.978Z,17.45
2019-05-22T03:36:26.442Z,17.60
2019-05-22T03:38:57.627Z,17.40
2019-05-22T03:41:27.174Z,18.40
2019-05-22T03:43:58.900Z,19.50
2019-05-22T03:46:32.938Z,20.08
2019-05-22T03:49:02.365Z,22.48
2019-05-22T03:51:31.740Z,19.70
2019-05-22T03:54:02.420Z,24.77
2019-05-22T03:56:31.813Z,23.65
2019-05-22T03:59:01.362Z,21.48
2019-05-22T04:01:36.574Z,20.55
2019-05-22T04:04:07.485Z,26.93
2019-05-22T04:06:37.560Z,21.10
2019-05-22T04:09:14.155Z,22.95
2019-05-22T04:11:47.106Z,24.05
2019-05-22T04:14:16.898Z,26.02
2019-05-22T04:16:45.737Z,21.12
2019-05-22T04:19:16.526Z,23.05
2019-05-22T04:21:47.171Z,24.18
2019-05-22T04:24:17.216Z,24.12
2019-05-22T04:26:46.396Z,24.50
2019-05-22T04:29:16.137Z,20.72
2019-05-22T04:31:50.854Z,24.50
2019-05-22T04:34:21.417Z,19.40
2019-05-22T04:36:50.991Z,21.70
2019-05-22T04:39:22.710Z,17.52
2019-05-22T04:41:53.761Z,17.07
2019-05-22T04:44:23.583Z,17.75
2019-05-22T04:46:57.853Z,15.32
2019-05-22T04:49:27.544Z,16.12
2019-05-22T04:51:56.911Z,15.88
2019-05-22T04:54:26.039Z,16.80
2019-05-22T04:56:56.134Z,20.90
2019-05-22T04:59:25.991Z,14.50
2019-05-22T05:01:55.169Z,16.17
2019-05-22T05:04:24.722Z,14.40
2019-05-22T05:06:56.768Z,12.07
2019-05-22T05:09:25.731Z,10.82
2019-05-22T05:11:54.994Z,11.75
2019-05-22T05:14:24.182Z,10.63
2019-05-22T05:16:54.073Z,12.18
2019-05-22T05:19:23.447Z,10.35
2019-05-22T05:21:54.461Z,10.60
2019-05-22T05:24:23.610Z,9.93
2019-05-22T05:26:52.469Z,9.65
2019-05-22T05:29:29.559Z,9.93
2019-05-22T05:32:02.193Z,7.58
2019-05-22T05:34:38.958Z,6.10
2019-05-22T05:37:08.720Z,7.53
2019-05-22T05:39:44.724Z,8.50
2019-05-22T05:42:13.949Z,9.35
2019-05-22T05:44:43.211Z,10.05
2019-05-22T05:47:14.497Z,7.65
2019-05-22T05:49:43.768Z,11.38
2019-05-22T05:52:13.672Z,15.13
2019-05-22T05:54:44.154Z,10.32
2019-05-22T05:57:30.547Z,9.55
2019-05-22T05:59:59.589Z,6.22
2019-05-22T06:02:28.596Z,7.00
2019-05-22T06:04:57.777Z,6.53
2019-05-22T06:07:27.354Z,7.87
2019-05-22T06:09:57.742Z,7.92
2019-05-22T06:12:28.291Z,8.33
2019-05-22T06:14:57.157Z,6.50
2019-05-22T06:17:31.786Z,8.08
2019-05-22T06:20:03.955Z,6.03
2019-05-22T06:22:32.965Z,8.18
2019-05-22T06:25:03.884Z,5.30
2019-05-22T06:27:35.464Z,5.47
2019-05-22T06:30:07.248Z,4.55
2019-05-22T06:32:38.630Z,5.20
2019-05-22T06:35:08.042Z,5.47
2019-05-22T06:37:49.449Z,4.12
2019-05-22T06:40:18.852Z,5.10
2019-05-22T06:42:49.575Z,4.83
2019-05-22T06:45:19.021Z,6.08
2019-05-22T06:47:48.412Z,7.22
2019-05-22T06:50:17.564Z,5.62
2019-05-22T06:52:46.427Z,5.20
2019-05-22T06:55:15.235Z,6.33
2019-05-22T06:57:44.091Z,5.72
2019-05-22T07:00:15.203Z,5.15
2019-05-22T07:02:45.007Z,6.33
2019-05-22T07:05:14.621Z,6.85
2019-05-22T07:07:43.645Z,5.67
2019-05-22T07:10:14.004Z,6.20
2019-05-22T07:12:43.367Z,5.60
2019-05-22T07:15:24.036Z,5.58
2019-05-22T07:17:53.725Z,5.40
2019-05-22T07:20:22.681Z,5.17
2019-05-22T07:22:52.129Z,5.17
2019-05-22T07:25:22.554Z,7.58
2019-05-22T07:27:58.051Z,6.53
2019-05-22T07:30:27.460Z,5.05
2019-05-22T07:33:02.659Z,7.83
2019-05-22T07:35:49.714Z,6.90
2019-05-22T07:38:03.432Z,5.53
2019-05-22T07:40:32.747Z,5.17
2019-05-22T07:43:01.812Z,5.30
2019-05-22T07:45:32.459Z,4.60
2019-05-22T07:48:01.712Z,4.40
2019-05-22T07:50:32.243Z,6.17
2019-05-22T07:53:02.258Z,4.78
2019-05-22T07:55:33.615Z,5.70
2019-05-22T07:58:09.764Z,4.08
2019-05-22T08:00:40.626Z,4.40
2019-05-22T08:03:10.053Z,4.22
2019-05-22T08:05:41.087Z,4.37
2019-05-22T08:08:10.808Z,3.92
2019-05-22T08:10:40.834Z,4.40
2019-05-22T08:13:13.180Z,4.40
2019-05-22T08:15:42.955Z,4.37
2019-05-22T08:18:13.019Z,4.10
2019-05-22T08:20:42.549Z,4.30
2019-05-22T08:23:11.973Z,7.12
2019-05-22T08:25:40.713Z,4.28
2019-05-22T08:28:10.702Z,5.42
2019-05-22T08:30:40.138Z,6.33
2019-05-22T08:33:11.821Z,5.60
2019-05-22T08:35:41.395Z,4.60
2019-05-22T08:38:12.848Z,4.12
2019-05-22T08:40:43.317Z,4.92
2019-05-22T08:43:12.691Z,5.28
2019-05-22T08:45:42.386Z,5.25
2019-05-22T08:48:12.411Z,4.25
2019-05-22T08:50:42.572Z,4.37
2019-05-22T08:53:13.458Z,3.87
2019-05-22T08:55:42.523Z,4.10
2019-05-22T08:58:11.947Z,4.10
2019-05-22T09:00:41.726Z,5.40
2019-05-22T09:03:11.407Z,3.37
2019-05-22T09:05:46.893Z,6.28
2019-05-22T09:08:15.872Z,4.12
2019-05-22T09:10:45.075Z,4.20
2019-05-22T09:13:14.380Z,6.22
2019-05-22T09:15:43.833Z,7.25
2019-05-22T09:18:12.918Z,5.58
2019-05-22T09:20:49.389Z,4.65
2019-05-22T09:23:14.674Z,6.20
2019-05-22T09:25:44.115Z,5.05
2019-05-22T09:28:13.157Z,6.30
2019-05-22T09:30:42.490Z,12.50
2019-05-22T09:33:13.076Z,11.60
2019-05-22T09:35:42.574Z,6.15
2019-05-22T09:38:11.662Z,8.25
2019-05-22T09:40:41.401Z,5.00
2019-05-22T09:43:10.580Z,5.15
2019-05-22T09:45:39.633Z,5.22
2019-05-22T09:48:09.532Z,4.65
2019-05-22T09:50:39.819Z,5.67
2019-05-22T09:53:09.552Z,4.75
2019-05-22T09:55:39.012Z,5.20
2019-05-22T09:58:08.300Z,5.25
2019-05-22T10:00:37.416Z,8.73
2019-05-22T10:03:07.092Z,8.18
2019-05-22T10:05:36.307Z,7.85
2019-05-22T10:08:07.157Z,11.38
2019-05-22T10:10:36.599Z,9.30
2019-05-22T10:13:06.360Z,8.53
2019-05-22T10:15:36.109Z,11.40
2019-05-22T10:18:06.195Z,12.18
2019-05-22T10:20:36.059Z,14.20
2019-05-22T10:23:15.635Z,12.43
2019-05-22T10:25:38.034Z,26.33
2019-05-22T10:28:07.775Z,20.40
2019-05-22T10:30:37.105Z,13.88
2019-05-22T10:33:11.679Z,17.40
2019-05-22T10:35:41.247Z,16.10
2019-05-22T10:38:11.312Z,15.18
2019-05-22T10:40:40.346Z,15.13
2019-05-22T10:43:09.238Z,16.97
2019-05-22T10:45:41.225Z,16.48
2019-05-22T10:48:10.180Z,18.42
2019-05-22T10:50:39.648Z,23.70
2019-05-22T10:53:09.829Z,19.23
2019-05-22T10:55:39.492Z,22.30
2019-05-22T10:58:08.769Z,18.77
2019-05-22T11:00:38.060Z,18.40
2019-05-22T11:03:07.923Z,19.70
2019-05-22T11:05:36.905Z,19.42
2019-05-22T11:08:05.902Z,21.70
2019-05-22T11:10:35.203Z,20.77
2019-05-22T11:13:05.922Z,21.05
2019-05-22T11:15:34.955Z,21.27
2019-05-22T11:18:04.773Z,19.27
2019-05-22T11:20:34.243Z,22.20
2019-05-22T11:23:03.328Z,22.62
2019-05-22T11:25:32.940Z,18.95
2019-05-22T11:28:02.134Z,18.00
2019-05-22T11:30:31.335Z,19.52
2019-05-22T11:33:01.539Z,20.05
2019-05-22T11:35:32.419Z,16.85
2019-05-22T11:38:01.400Z,18.35
2019-05-22T11:40:30.529Z,17.95
2019-05-22T11:43:00.069Z,16.60
2019-05-22T11:45:30.428Z,20.02
2019-05-22T11:48:00.565Z,19.57
2019-05-22T11:50:31.411Z,16.77
2019-05-22T11:53:00.604Z,21.12
2019-05-22T11:55:44.209Z,18.50
2019-05-22T11:58:02.867Z,21.02
2019-05-22T12:00:32.231Z,19.62
2019-05-22T12:03:02.650Z,22.45
2019-05-22T12:05:32.737Z,20.27
2019-05-22T12:08:02.541Z,21.07
2019-05-22T12:10:32.468Z,23.18
2019-05-22T12:13:03.166Z,19.73
2019-05-22T12:15:33.736Z,20.82
2019-05-22T12:18:02.698Z,24.30
2019-05-22T12:20:32.112Z,18.73
2019-05-22T12:23:01.517Z,18.20
2019-05-22T12:25:31.655Z,18.73
2019-05-22T12:28:03.079Z,22.58
2019-05-22T12:30:32.348Z,18.95
2019-05-22T12:33:01.400Z,14.28
2019-05-22T12:35:31.438Z,5.75
2019-05-22T12:38:01.371Z,3.25
2019-05-22T12:40:33.336Z,5.15
2019-05-22T12:43:04.049Z,2.37
2019-05-22T12:45:33.812Z,1.50
2019-05-22T12:48:04.619Z,1.65
2019-05-22T12:50:34.466Z,1.60
2019-05-22T12:53:04.948Z,3.80
2019-05-22T12:55:34.534Z,2.12
2019-05-22T12:58:04.274Z,3.90
2019-05-22T13:00:33.947Z,2.40
2019-05-22T13:03:03.834Z,1.92
2019-05-22T13:05:35.871Z,5.87
2019-05-22T13:08:05.975Z,2.75
2019-05-22T13:10:36.010Z,3.65
2019-05-22T13:13:04.758Z,4.62
2019-05-22T13:15:34.016Z,2.67
2019-05-22T13:18:03.998Z,3.80
2019-05-22T13:20:42.659Z,2.98
2019-05-22T13:23:08.092Z,2.30
2019-05-22T13:25:37.433Z,2.55
2019-05-22T13:28:08.440Z,5.03
2019-05-22T13:30:39.413Z,2.45
2019-05-22T13:33:11.171Z,3.17
2019-05-22T13:35:42.518Z,3.92
2019-05-22T13:38:16.630Z,3.42
2019-05-22T13:40:46.510Z,3.15
2019-05-22T13:43:19.155Z,3.20
2019-05-22T13:45:48.423Z,4.65
2019-05-22T13:48:17.419Z,3.40
2019-05-22T13:50:46.447Z,3.60
2019-05-22T13:53:16.406Z,3.30
2019-05-22T13:55:46.355Z,4.62
2019-05-22T13:58:16.298Z,3.10
2019-05-22T14:00:49.170Z,2.58
2019-05-22T14:03:18.642Z,2.83
2019-05-22T14:05:47.968Z,2.95
2019-05-22T14:08:17.015Z,3.25
2019-05-22T14:10:49.633Z,3.42
2019-05-22T14:13:16.917Z,3.35
2019-05-22T14:15:52.499Z,5.25
2019-05-22T14:18:16.751Z,4.03
2019-05-22T14:20:45.783Z,5.22
2019-05-22T14:23:15.372Z,4.15
2019-05-22T14:25:45.364Z,5.80
2019-05-22T14:28:16.015Z,5.08
2019-05-22T14:30:45.252Z,6.75
2019-05-22T14:33:13.936Z,4.10
2019-05-22T14:35:48.965Z,5.40
2019-05-22T14:38:15.317Z,5.58
2019-05-22T14:40:46.836Z,5.65
2019-05-22T14:43:16.070Z,6.35
2019-05-22T14:45:45.195Z,5.53
2019-05-22T14:48:14.885Z,4.75
2019-05-22T14:50:45.154Z,5.33
2019-05-22T14:53:14.612Z,6.00
2019-05-22T14:55:45.212Z,6.30
2019-05-22T14:58:14.638Z,5.60
2019-05-22T15:00:43.963Z,11.12
2019-05-22T15:03:14.048Z,4.78
2019-05-22T15:05:43.208Z,4.72
2019-05-22T15:08:12.915Z,4.15
2019-05-22T15:10:42.673Z,4.58
2019-05-22T15:13:12.179Z,10.75
2019-05-22T15:15:41.552Z,4.35
2019-05-22T15:18:11.395Z,7.12
2019-05-22T15:20:42.678Z,4.75
2019-05-22T15:23:11.624Z,6.22
2019-05-22T15:25:46.340Z,2.67
2019-05-22T15:28:15.417Z,6.05
2019-05-22T15:30:45.181Z,5.30
2019-05-22T15:33:14.262Z,5.08
2019-05-22T15:35:43.330Z,3.15
2019-05-22T15:38:15.288Z,4.70
2019-05-22T15:40:44.922Z,5.87
2019-05-22T15:43:14.922Z,4.55
2019-05-22T15:45:44.145Z,3.37
2019-05-22T15:48:30.875Z,3.47
2019-05-22T15:51:01.376Z,4.12
2019-05-22T15:53:34.023Z,4.42
2019-05-22T15:56:04.750Z,4.62
2019-05-22T15:58:35.846Z,3.75
2019-05-22T16:01:10.978Z,3.77
2019-05-22T16:03:41.558Z,4.10
2019-05-22T16:06:11.388Z,3.25
2019-05-22T16:08:42.367Z,3.17
2019-05-22T16:11:13.628Z,3.37
2019-05-22T16:13:42.549Z,3.70
2019-05-22T16:16:12.419Z,5.08
2019-05-22T16:18:42.348Z,6.28
2019-05-22T16:21:12.756Z,12.33
2019-05-22T16:23:43.276Z,4.83
2019-05-22T16:26:13.162Z,4.00
2019-05-22T16:28:44.410Z,7.25
2019-05-22T16:31:13.973Z,7.12
2019-05-22T16:33:45.214Z,6.58
2019-05-22T16:36:15.013Z,3.52
2019-05-22T16:38:44.732Z,4.25
2019-05-22T16:41:14.033Z,3.95
2019-05-22T16:43:49.395Z,7.58
2019-05-22T16:46:17.448Z,4.53
2019-05-22T16:48:48.000Z,4.72
2019-05-22T16:51:17.221Z,3.98
2019-05-22T16:53:50.663Z,4.50
2019-05-22T16:56:20.307Z,4.10
2019-05-22T16:58:49.305Z,4.85
2019-05-22T17:01:19.179Z,4.78
2019-05-22T17:03:49.520Z,4.30
2019-05-22T17:06:19.319Z,5.67
2019-05-22T17:08:48.348Z,6.00
2019-05-22T17:11:17.061Z,4.08
2019-05-22T17:13:46.289Z,3.83
2019-05-22T17:16:15.938Z,4.20
2019-05-22T17:18:47.990Z,5.00
2019-05-22T17:21:15.653Z,4.20
2019-05-22T17:23:45.018Z,6.15
2019-05-22T17:26:15.931Z,3.75
2019-05-22T17:28:45.049Z,6.33
2019-05-22T17:31:15.471Z,5.10
2019-05-22T17:33:49.724Z,4.35
2019-05-22T17:36:20.494Z,6.70
2019-05-22T17:38:49.716Z,3.98
2019-05-22T17:41:19.466Z,5.12
2019-05-22T17:43:50.014Z,6.17
2019-05-22T17:46:20.708Z,7.67
2019-05-22T17:48:55.503Z,5.22
2019-05-22T17:51:26.016Z,10.00
2019-05-22T17:53:55.321Z,5.80
2019-05-22T17:56:25.973Z,4.47
2019-05-22T17:58:55.810Z,3.92
2019-05-22T18:01:24.877Z,5.00
2019-05-22T18:03:54.364Z,5.28
2019-05-22T18:06:26.203Z,4.20
2019-05-22T18:08:55.504Z,3.70
2019-05-22T18:11:24.450Z,7.33
2019-05-22T18:13:55.162Z,4.50
2019-05-22T18:16:24.793Z,3.98
2019-05-22T18:18:54.664Z,8.23
2019-05-22T18:21:24.004Z,4.92
2019-05-22T18:23:52.906Z,10.43
2019-05-22T18:26:22.361Z,3.58
2019-05-22T18:28:51.950Z,3.98
2019-05-22T18:31:21.658Z,3.47
2019-05-22T18:33:50.985Z,4.37
2019-05-22T18:36:20.022Z,3.50
2019-05-22T18:38:48.990Z,3.10
2019-05-22T18:41:18.171Z,3.72
2019-05-22T18:43:47.654Z,6.75
2019-05-22T18:46:19.676Z,3.85
2019-05-22T18:48:49.595Z,3.00
2019-05-22T18:51:18.567Z,3.87
2019-05-22T18:53:50.068Z,4.10
2019-05-22T18:56:19.846Z,3.33
2019-05-22T18:58:49.585Z,3.75
2019-05-22T19:01:19.479Z,4.03
2019-05-22T19:03:48.453Z,4.85
2019-05-22T19:06:29.814Z,4.30
2019-05-22T19:08:48.601Z,8.55
2019-05-22T19:11:18.742Z,5.03
2019-05-22T19:13:48.494Z,7.05
2019-05-22T19:16:17.585Z,6.22
2019-05-22T19:18:47.940Z,8.75
2019-05-22T19:21:19.078Z,6.22
2019-05-22T19:23:49.250Z,6.25
2019-05-22T19:26:18.699Z,4.53
2019-05-22T19:28:48.123Z,6.50
2019-05-22T19:31:19.749Z,6.05
2019-05-22T19:33:49.789Z,6.45
2019-05-22T19:36:20.547Z,4.22
2019-05-22T19:38:53.491Z,4.55
2019-05-22T19:41:22.966Z,7.03
2019-05-22T19:43:54.039Z,5.47
2019-05-22T19:46:34.087Z,6.17
2019-05-22T19:49:03.698Z,7.97
2019-05-22T19:51:33.099Z,4.08
2019-05-22T19:54:02.423Z,7.00
2019-05-22T19:56:31.727Z,4.45
2019-05-22T19:59:00.409Z,5.25
2019-05-22T20:01:30.674Z,4.25
2019-05-22T20:04:01.116Z,4.45
2019-05-22T20:06:31.479Z,3.52
2019-05-22T20:09:00.874Z,3.95
2019-05-22T20:11:30.198Z,5.22
2019-05-22T20:13:59.376Z,4.55
2019-05-22T20:16:28.502Z,4.50
2019-05-22T20:18:59.702Z,5.35
2019-05-22T20:21:28.845Z,4.53
2019-05-22T20:23:58.836Z,4.78
2019-05-22T20:26:28.278Z,4.33
2019-05-22T20:28:57.151Z,4.28
2019-05-22T20:31:28.888Z,5.53
2019-05-22T20:33:57.855Z,8.03
2019-05-22T20:36:28.290Z,4.85
2019-05-22T20:38:57.276Z,5.47
2019-05-22T20:41:26.784Z,4.83
2019-05-22T20:43:56.273Z,4.42
2019-05-22T20:46:26.903Z,5.85
2019-05-22T20:48:55.931Z,5.03
2019-05-22T20:51:26.451Z,3.80
2019-05-22T20:53:56.220Z,4.92
2019-05-22T20:56:27.854Z,6.87
2019-05-22T20:58:58.675Z,4.40
2019-05-22T21:01:28.048Z,3.95
2019-05-22T21:03:58.449Z,3.20
2019-05-22T21:06:27.228Z,3.45
2019-05-22T21:08:56.129Z,3.50
2019-05-22T21:11:34.044Z,3.75
2019-05-22T21:14:03.561Z,3.47
2019-05-22T21:16:33.445Z,3.85
2019-05-22T21:19:02.615Z,4.67
2019-05-22T21:21:31.942Z,3.83
2019-05-22T21:24:10.269Z,3.15
2019-05-22T21:26:33.024Z,2.83
2019-05-22T21:29:03.530Z,3.33
2019-05-22T21:31:32.312Z,4.03
2019-05-22T21:34:01.717Z,3.55
2019-05-22T21:36:30.833Z,2.70
2019-05-22T21:39:00.719Z,2.60
2019-05-22T21:41:31.051Z,2.60
2019-05-22T21:43:59.859Z,3.40
2019-05-22T21:46:28.535Z,3.15
2019-05-22T21:48:58.745Z,2.75
2019-05-22T21:51:27.608Z,4.35
2019-05-22T21:53:57.162Z,3.87
2019-05-22T21:56:26.360Z,2.92
2019-05-22T21:58:55.762Z,4.15
2019-05-22T22:01:26.456Z,3.85
2019-05-22T22:04:01.622Z,3.30
2019-05-22T22:06:33.168Z,3.75
2019-05-22T22:09:00.720Z,3.15
2019-05-22T22:11:30.559Z,4.20
2019-05-22T22:14:00.755Z,3.10
2019-05-22T22:16:29.580Z,4.28
2019-05-22T22:19:00.421Z,3.02
2019-05-22T22:21:29.194Z,3.27
2019-05-22T22:23:57.770Z,5.22
2019-05-22T22:26:26.815Z,4.15
2019-05-22T22:29:06.115Z,3.25
2019-05-22T22:31:42.519Z,4.53
2019-05-22T22:34:15.755Z,7.12
2019-05-22T22:36:45.038Z,3.27
2019-05-22T22:39:15.803Z,2.80
2019-05-22T22:41:44.784Z,2.90
2019-05-22T22:44:15.270Z,3.65
2019-05-22T22:46:45.721Z,2.62
2019-05-22T22:49:16.173Z,4.17
2019-05-22T22:51:47.093Z,3.27
2019-05-22T22:54:16.190Z,4.05
2019-05-22T22:56:47.155Z,3.72
2019-05-22T22:59:16.613Z,4.58
2019-05-22T23:01:47.666Z,4.67
2019-05-22T23:04:17.270Z,3.45
2019-05-22T23:06:46.849Z,3.42
2019-05-22T23:09:16.512Z,3.37
2019-05-22T23:11:46.367Z,4.33
2019-05-22T23:14:16.121Z,3.90
2019-05-22T23:16:45.041Z,5.08
2019-05-22T23:19:19.161Z,4.00
2019-05-22T23:21:48.655Z,3.60
2019-05-22T23:24:19.314Z,3.65
2019-05-22T23:26:48.355Z,3.47
2019-05-22T23:29:17.772Z,2.77
2019-05-22T23:31:46.868Z,2.65
2019-05-22T23:34:17.757Z,3.55
2019-05-22T23:36:48.116Z,3.00
2019-05-22T23:39:20.561Z,3.87
2019-05-22T23:41:50.454Z,4.78
2019-05-22T23:44:22.084Z,3.75
2019-05-22T23:46:51.090Z,3.65
2019-05-22T23:49:20.877Z,3.15
2019-05-22T23:51:50.834Z,5.75
2019-05-22T23:54:20.306Z,3.95
2019-05-22T23:56:50.235Z,3.40
2019-05-22T23:59:20.233Z,4.15
